Terminal Aerodrome Forecast
Issued by NWS Central Illinois

Home | Current Version | Previous Version | Text Only | Print | Product List | Glossary On
Versions: 1 2 3 4 5 6 7 8 9 10 11 12
000
FTUS43 KILX 022320
TAFPIA
TAF
KPIA 022320Z 0300/0324 22011KT P6SM SCT090
     FM030300 23009KT P6SM VCTS SCT050CB BKN090
     FM030900 34008KT P6SM SCT090=

USA.gov is the U.S. government's official web portal to all federal, state and local government web resources and services.